LFML Airport Information

Runway Information
Runway 13L Length 11483 ft width 148 ft
Elevation 8 ft Threshold 1116 ft Heading 134
Runway 31R Length 11483 ft Width 148 ft
Elevation 53 ft Threshold 2165 ft Heading 314
Runway 13R Length 7776 ft width 148 ft
Elevation 8 ft Threshold 0 ft Heading 134
Runway 31L Length 7776 ft Width 148 ft
Elevation 61 ft Threshold 345 ft Heading 314
Airport Frequencies
Type APP Name APP/RADAR Frequency 120.2 MHZ
Type ATIS Name ATIS Frequency 125.35 MHZ
Type GND Name GND Frequency 121.9 MHZ
Type INFO Name INFO Frequency 118.85 MHZ
Type PFLT Name PERFLIGHT Frequency 121.725 MHZ
Type TWR Name TWR Frequency 118.375 MHZ
Airport Navaids
Type VOR-DME Name Marseille/Provence Frequency 108800 KHZ
Airport Weather Information & NOTAM
ADDS - METARS form results

(1445 UTC 17 February 2019)
Data provider http://aviationweather.gov/metar/data/
 
METAR text: LFML 171430Z AUTO 17010KT 140V200 9999 FEW021 15/08 Q1027 NOSIG
Conditions at: LFML (MARSEILLE/MARIGN, FR) observed 1430 UTC 17 February 2019
Temperature: 15.0°C (59°F)
Dewpoint: 8.0°C (46°F) [RH = 63%]
Pressure (altimeter): 30.32 inches Hg (1027.0 mb)
Winds: from the S (170 degrees) at 12 MPH (10 knots; 5.1 m/s)
Visibility: 6 or more miles (10+ km)
Ceiling: at least 12,000 feet AGL
Clouds: few clouds at 2100 feet AGL
Weather: no significant weather observed at this time

METAR text: LFML 171400Z AUTO 19011KT 9999 FEW020 14/09 Q1027 NOSIG
Conditions at: LFML (MARSEILLE/MARIGN, FR) observed 1400 UTC 17 February 2019
Temperature: 14.0°C (57°F)
Dewpoint: 9.0°C (48°F) [RH = 72%]
Pressure (altimeter): 30.32 inches Hg (1027.0 mb)
Winds: from the S (190 degrees) at 13 MPH (11 knots; 5.7 m/s)
Visibility: 6 or more miles (10+ km)
Ceiling: at least 12,000 feet AGL
Clouds: few clouds at 2000 feet AGL
Weather: no significant weather observed at this time

Forecast for: LFML (MARSEILLE/MARIGN, FR)
Text: TAF LFML 171400Z 1715/1821 VRB05KT CAVOK TX14/1814Z TN04/1806Z
Forecast period: 1500 UTC 17 February 2019 to 2100 UTC 18 February 2019
Forecast type: FROM: standard forecast or significant change
Winds: variable direction winds at 6 MPH (5 knots; 2.6 m/s)
Visibility: 6 or more miles 10+ km)
Ceiling: unknown
Clouds: missing
Weather: no significant weather forecast for this period